Time;durP1;ratioP1;P1;durP2;ratioP2;P2;SDS_P1;SDS_P2;PMS_P1;PMS_P2;Temp;Humidity;BMP_temperature;BMP_pressure;BME280_temperature;BME280_humidity;BME280_pressure;Samples;Min_cycle;Max_cycle;Signal;HPM_P1;HPM_P2
2023/08/07 00:00:42;;;;;;;;;;;11.40;99.90;;;;;;4995925;28;20122;-72
2023/08/07 00:03:11;;;;;;;;;;;11.40;99.90;;;;;;4998534;28;19989;-72
2023/08/07 00:05:37;;;;;;;;;;;11.40;99.90;;;;;;4986862;28;19936;-72
2023/08/07 00:08:04;;;;;;;;;;;11.40;99.90;;;;;;4993254;28;19922;-71
2023/08/07 00:10:31;;;;;;;;;;;11.40;99.90;;;;;;5006554;28;20181;-71
2023/08/07 00:12:57;;;;;;;;;;;11.40;99.90;;;;;;5006183;28;19985;-72
2023/08/07 00:15:24;;;;;;;;;;;11.40;99.90;;;;;;4984847;28;19983;-72
2023/08/07 00:17:51;;;;;;;;;;;11.40;99.90;;;;;;4991704;28;19976;-72
2023/08/07 00:20:19;;;;;;;;;;;11.30;99.90;;;;;;4984190;28;19922;-71
2023/08/07 00:22:45;;;;;;;;;;;11.40;99.90;;;;;;4986748;28;19985;-72
2023/08/07 00:25:12;;;;;;;;;;;11.30;99.90;;;;;;4972193;28;20283;-71
2023/08/07 00:27:39;;;;;;;;;;;11.30;99.90;;;;;;4966696;28;19923;-71
2023/08/07 00:30:06;;;;;;;;;;;11.30;99.90;;;;;;4985568;28;19964;-71
2023/08/07 00:32:32;;;;;;;;;;;11.30;99.90;;;;;;4985989;28;19981;-72
2023/08/07 00:34:59;;;;;;;;;;;11.30;99.90;;;;;;4985925;28;19972;-71
2023/08/07 00:37:27;;;;;;;;;;;11.30;99.90;;;;;;4985884;28;19993;-71
2023/08/07 00:39:53;;;;;;;;;;;11.30;99.90;;;;;;4986211;28;20264;-72
2023/08/07 00:42:20;;;;;;;;;;;11.30;99.90;;;;;;4976301;28;19983;-72
2023/08/07 00:44:47;;;;;;;;;;;11.30;99.90;;;;;;4969598;28;20186;-72
2023/08/07 00:47:13;;;;;;;;;;;11.30;99.90;;;;;;4993638;28;19929;-72
2023/08/07 00:49:40;;;;;;;;;;;11.30;99.90;;;;;;4986404;28;20157;-71
2023/08/07 00:52:07;;;;;;;;;;;11.30;99.90;;;;;;4985975;28;19985;-72
2023/08/07 00:54:35;;;;;;;;;;;11.20;99.90;;;;;;4986174;28;19922;-71
2023/08/07 00:57:08;;;;;;;;;;;11.20;99.90;;;;;;4985426;28;19962;-71
2023/08/07 00:59:34;;;;;;;;;;;11.20;99.90;;;;;;4987544;28;19985;-71
2023/08/07 01:02:01;;;;;;;;;;;11.30;99.90;;;;;;4997116;28;19921;-71
2023/08/07 01:04:28;;;;;;;;;;;11.30;99.90;;;;;;5005466;28;19997;-71
2023/08/07 01:06:55;;;;;;;;;;;11.20;99.90;;;;;;4989449;28;19922;-71
2023/08/07 01:09:21;;;;;;;;;;;11.20;99.90;;;;;;4985707;28;20163;-71
2023/08/07 01:11:51;;;;;;;;;;;11.20;99.90;;;;;;4986076;28;19929;-72
2023/08/07 01:14:20;;;;;;;;;;;11.20;99.90;;;;;;4984469;28;20285;-72
2023/08/07 01:16:49;;;;;;;;;;;11.20;99.90;;;;;;4992730;28;19988;-71
2023/08/07 01:19:20;;;;;;;;;;;11.20;99.90;;;;;;4983653;28;20175;-72
2023/08/07 01:21:50;;;;;;;;;;;11.20;99.90;;;;;;4985345;28;19922;-72
2023/08/07 01:24:16;;;;;;;;;;;11.10;99.90;;;;;;4985646;28;19984;-72
2023/08/07 01:26:44;;;;;;;;;;;11.10;99.90;;;;;;4985466;28;19928;-71
2023/08/07 01:29:13;;;;;;;;;;;11.10;99.90;;;;;;4975069;28;20261;-71
2023/08/07 01:31:40;;;;;;;;;;;11.10;99.90;;;;;;4994498;28;19964;-71
2023/08/07 01:34:09;;;;;;;;;;;11.10;99.90;;;;;;5005060;28;19961;-72
2023/08/07 01:36:35;;;;;;;;;;;11.10;99.90;;;;;;5004103;28;19928;-71
2023/08/07 01:39:06;;;;;;;;;;;11.10;99.90;;;;;;5004624;28;19966;-71
2023/08/07 01:41:33;;;;;;;;;;;11.10;99.90;;;;;;5004644;28;20209;-71
2023/08/07 01:44:00;;;;;;;;;;;11.10;99.90;;;;;;4998013;28;20001;-71
2023/08/07 01:46:27;;;;;;;;;;;11.10;99.90;;;;;;4992592;28;19989;-71
2023/08/07 01:48:53;;;;;;;;;;;11.00;99.90;;;;;;4996646;28;20115;-71
2023/08/07 01:51:20;;;;;;;;;;;11.10;99.90;;;;;;4985221;28;20030;-71
2023/08/07 01:53:47;;;;;;;;;;;11.10;99.90;;;;;;4985104;28;19922;-71
2023/08/07 01:56:15;;;;;;;;;;;11.10;99.90;;;;;;4984460;28;19922;-72
2023/08/07 01:58:42;;;;;;;;;;;11.00;99.90;;;;;;4984834;28;20250;-71
2023/08/07 02:01:08;;;;;;;;;;;11.00;99.90;;;;;;4967253;28;19922;-72
2023/08/07 02:03:35;;;;;;;;;;;11.00;99.90;;;;;;5001075;28;19992;-71
2023/08/07 02:06:02;;;;;;;;;;;11.00;99.90;;;;;;5003801;28;19944;-71
2023/08/07 02:08:29;;;;;;;;;;;11.00;99.90;;;;;;5004523;28;19922;-71
2023/08/07 02:10:55;;;;;;;;;;;11.00;99.90;;;;;;5004457;28;19928;-71
2023/08/07 02:13:23;;;;;;;;;;;11.00;99.90;;;;;;5004388;28;19922;-71
2023/08/07 02:15:50;;;;;;;;;;;11.00;99.90;;;;;;4989154;28;19959;-72
2023/08/07 02:18:18;;;;;;;;;;;11.00;99.90;;;;;;4997197;28;19961;-71
2023/08/07 02:20:46;;;;;;;;;;;11.00;99.90;;;;;;5004416;28;19964;-71
2023/08/07 02:23:13;;;;;;;;;;;11.00;99.90;;;;;;5004288;28;19926;-72
2023/08/07 02:25:39;;;;;;;;;;;11.00;99.90;;;;;;5004055;28;19984;-72
2023/08/07 02:28:06;;;;;;;;;;;11.00;99.90;;;;;;5003738;28;20210;-71
2023/08/07 02:30:34;;;;;;;;;;;10.90;99.90;;;;;;4996183;28;19953;-71
2023/08/07 02:33:01;;;;;;;;;;;10.90;99.90;;;;;;4991038;28;19926;-71
2023/08/07 02:35:28;;;;;;;;;;;11.00;99.90;;;;;;4984811;28;19922;-71
2023/08/07 02:37:54;;;;;;;;;;;10.90;99.90;;;;;;4983810;28;19926;-71
2023/08/07 02:40:21;;;;;;;;;;;10.90;99.90;;;;;;4984570;28;19922;-71
2023/08/07 02:42:47;;;;;;;;;;;10.90;99.90;;;;;;4984322;28;19981;-71
2023/08/07 02:45:14;;;;;;;;;;;10.90;99.90;;;;;;4978892;28;19981;-72
2023/08/07 02:47:42;;;;;;;;;;;10.90;99.90;;;;;;4991855;28;20267;-72
2023/08/07 02:50:09;;;;;;;;;;;10.90;99.90;;;;;;4984278;28;19989;-71
2023/08/07 02:52:36;;;;;;;;;;;10.90;99.90;;;;;;4984646;28;19929;-71
2023/08/07 02:55:02;;;;;;;;;;;10.90;99.90;;;;;;4984151;28;19922;-71
2023/08/07 02:57:36;;;;;;;;;;;10.80;99.90;;;;;;4984074;28;19997;-72
2023/08/07 03:00:03;;;;;;;;;;;10.90;99.90;;;;;;4993148;28;19988;-71
2023/08/07 03:02:29;;;;;;;;;;;10.90;99.90;;;;;;4996420;28;19945;-71
2023/08/07 03:04:57;;;;;;;;;;;10.90;99.90;;;;;;5007650;28;19922;-71
2023/08/07 03:07:24;;;;;;;;;;;10.90;99.90;;;;;;5006770;28;19993;-71
2023/08/07 03:09:50;;;;;;;;;;;10.80;99.90;;;;;;5005678;28;19988;-71
2023/08/07 03:12:18;;;;;;;;;;;10.80;99.90;;;;;;5004855;28;19988;-71
2023/08/07 03:14:45;;;;;;;;;;;10.90;99.90;;;;;;5004174;28;19949;-71
2023/08/07 03:17:11;;;;;;;;;;;10.80;99.90;;;;;;4995037;28;20285;-71
2023/08/07 03:19:38;;;;;;;;;;;10.80;99.90;;;;;;4987650;28;19928;-71
2023/08/07 03:22:07;;;;;;;;;;;10.80;99.90;;;;;;4984743;28;20117;-72
2023/08/07 03:24:36;;;;;;;;;;;10.80;99.90;;;;;;4986454;28;19929;-72
2023/08/07 03:27:02;;;;;;;;;;;10.80;99.90;;;;;;4986860;28;19989;-70
2023/08/07 03:29:29;;;;;;;;;;;10.80;99.90;;;;;;4974336;28;19949;-71
2023/08/07 03:31:55;;;;;;;;;;;10.80;99.90;;;;;;4995678;28;19922;-72
2023/08/07 03:34:22;;;;;;;;;;;10.80;99.90;;;;;;4986307;28;19981;-71
2023/08/07 03:36:49;;;;;;;;;;;10.80;99.90;;;;;;4986666;28;19961;-71
2023/08/07 03:39:18;;;;;;;;;;;10.80;99.90;;;;;;4984861;28;19922;-71
2023/08/07 03:41:44;;;;;;;;;;;10.80;99.90;;;;;;4987165;28;19962;-71
2023/08/07 03:44:11;;;;;;;;;;;10.80;99.90;;;;;;4986990;28;19989;-71
2023/08/07 03:46:38;;;;;;;;;;;10.80;99.90;;;;;;4996645;28;19923;-71
2023/08/07 03:49:07;;;;;;;;;;;10.80;99.90;;;;;;5004014;28;20273;-71
2023/08/07 03:51:34;;;;;;;;;;;10.70;99.90;;;;;;4966594;29;19994;-71
2023/08/07 03:54:01;;;;;;;;;;;10.80;99.90;;;;;;4967739;28;20236;-71
2023/08/07 03:56:32;;;;;;;;;;;10.70;99.90;;;;;;4967225;29;19927;-71
2023/08/07 03:58:58;;;;;;;;;;;10.70;99.90;;;;;;4967594;29;19965;-72
2023/08/07 04:01:25;;;;;;;;;;;10.70;99.90;;;;;;4982399;28;20159;-72
2023/08/07 04:03:52;;;;;;;;;;;10.70;99.90;;;;;;4987114;28;19964;-72
2023/08/07 04:06:19;;;;;;;;;;;10.70;99.90;;;;;;4985989;28;19985;-72
2023/08/07 04:08:46;;;;;;;;;;;10.70;99.90;;;;;;4986736;28;20206;-71
2023/08/07 04:11:12;;;;;;;;;;;10.60;99.90;;;;;;4986462;28;20170;-72
2023/08/07 04:13:40;;;;;;;;;;;10.60;99.90;;;;;;4986592;28;19922;-72
2023/08/07 04:16:07;;;;;;;;;;;10.60;99.90;;;;;;4994150;28;20165;-71
2023/08/07 04:18:33;;;;;;;;;;;10.60;99.90;;;;;;5004165;28;19928;-71
2023/08/07 04:21:00;;;;;;;;;;;10.60;99.90;;;;;;5006527;28;19985;-71
2023/08/07 04:23:27;;;;;;;;;;;10.60;99.90;;;;;;5005975;28;19984;-71
2023/08/07 04:25:54;;;;;;;;;;;10.60;99.90;;;;;;5006033;28;19989;-72
2023/08/07 04:28:21;;;;;;;;;;;10.60;99.90;;;;;;5006144;28;19928;-71
2023/08/07 04:30:51;;;;;;;;;;;10.60;99.90;;;;;;4997641;28;20181;-71
2023/08/07 04:33:18;;;;;;;;;;;10.60;99.90;;;;;;4990258;28;19969;-71
2023/08/07 04:35:46;;;;;;;;;;;10.60;99.90;;;;;;4986330;28;19989;-72
2023/08/07 04:38:13;;;;;;;;;;;10.60;99.90;;;;;;4977567;28;19922;-71
2023/08/07 04:40:44;;;;;;;;;;;10.60;99.90;;;;;;4967212;29;19989;-72
2023/08/07 04:43:10;;;;;;;;;;;10.60;99.90;;;;;;4966878;28;19990;-70
2023/08/07 04:45:38;;;;;;;;;;;10.60;99.90;;;;;;4984426;28;19953;-71
2023/08/07 04:48:06;;;;;;;;;;;10.60;99.90;;;;;;4992080;28;19930;-72
2023/08/07 04:50:32;;;;;;;;;;;10.60;99.90;;;;;;4986371;28;19989;-72
2023/08/07 04:52:59;;;;;;;;;;;10.60;99.90;;;;;;4986271;28;20116;-71
2023/08/07 04:55:26;;;;;;;;;;;10.60;99.90;;;;;;4986073;28;19922;-71
2023/08/07 04:57:54;;;;;;;;;;;10.60;99.90;;;;;;4985584;28;19988;-71
2023/08/07 05:00:21;;;;;;;;;;;10.60;99.90;;;;;;4988104;28;19996;-72
2023/08/07 05:02:47;;;;;;;;;;;10.60;99.90;;;;;;4997373;28;19989;-71
2023/08/07 05:05:16;;;;;;;;;;;10.60;99.90;;;;;;5005387;28;19921;-71
2023/08/07 05:07:42;;;;;;;;;;;10.60;99.90;;;;;;5004804;28;19990;-71
2023/08/07 05:10:09;;;;;;;;;;;10.60;99.90;;;;;;5005061;28;20221;-71
2023/08/07 05:12:36;;;;;;;;;;;10.60;99.90;;;;;;5005028;28;19989;-71
2023/08/07 05:15:02;;;;;;;;;;;10.60;99.90;;;;;;4999792;28;19928;-71
2023/08/07 05:17:29;;;;;;;;;;;10.50;99.90;;;;;;4993128;28;19989;-71
2023/08/07 05:19:56;;;;;;;;;;;10.50;99.90;;;;;;4985307;28;19928;-71
2023/08/07 05:22:24;;;;;;;;;;;10.50;99.90;;;;;;4984700;28;19989;-72
2023/08/07 05:24:50;;;;;;;;;;;10.50;99.90;;;;;;4985609;28;20005;-71
2023/08/07 05:27:17;;;;;;;;;;;10.60;99.90;;;;;;4985028;28;20005;-71
2023/08/07 05:29:46;;;;;;;;;;;10.60;99.90;;;;;;4979758;28;19998;-71
2023/08/07 05:32:14;;;;;;;;;;;10.60;99.90;;;;;;4993522;28;20162;-71
2023/08/07 05:34:41;;;;;;;;;;;10.60;99.90;;;;;;4985398;28;19929;-72
2023/08/07 05:37:08;;;;;;;;;;;10.50;99.90;;;;;;4984883;28;20165;-72
2023/08/07 05:39:37;;;;;;;;;;;10.50;99.90;;;;;;4984940;28;19922;-71
2023/08/07 05:42:04;;;;;;;;;;;10.50;99.90;;;;;;4985183;28;20209;-72
2023/08/07 05:44:36;;;;;;;;;;;10.50;99.90;;;;;;4985854;28;19984;-72
2023/08/07 05:47:03;;;;;;;;;;;10.50;99.90;;;;;;4995706;28;19929;-72
2023/08/07 05:49:31;;;;;;;;;;;10.50;99.90;;;;;;5004799;28;20117;-71
2023/08/07 05:51:57;;;;;;;;;;;10.50;99.90;;;;;;5004660;28;19929;-71
2023/08/07 05:54:24;;;;;;;;;;;10.50;99.90;;;;;;5004575;28;19925;-72
2023/08/07 05:56:52;;;;;;;;;;;10.50;99.90;;;;;;5003702;28;19946;-71
2023/08/07 05:59:19;;;;;;;;;;;10.50;99.90;;;;;;4999603;28;20172;-71
2023/08/07 06:01:46;;;;;;;;;;;10.50;99.90;;;;;;4996117;28;19949;-72
2023/08/07 06:04:12;;;;;;;;;;;10.50;99.90;;;;;;5004517;28;19922;-71
2023/08/07 06:06:39;;;;;;;;;;;10.50;99.90;;;;;;5003818;28;19921;-71
2023/08/07 06:09:06;;;;;;;;;;;10.50;99.90;;;;;;5004277;28;19930;-72
2023/08/07 06:11:33;;;;;;;;;;;10.50;99.90;;;;;;4996666;28;19949;-70
2023/08/07 06:14:00;;;;;;;;;;;10.50;99.90;;;;;;4984822;28;20249;-71
2023/08/07 06:16:27;;;;;;;;;;;10.50;99.90;;;;;;4991110;28;19990;-72
2023/08/07 06:18:54;;;;;;;;;;;10.60;99.90;;;;;;4984929;28;19922;-71
2023/08/07 06:21:20;;;;;;;;;;;10.60;99.90;;;;;;4984952;28;19989;-71
2023/08/07 06:23:47;;;;;;;;;;;10.60;99.90;;;;;;4984835;28;19922;-71
2023/08/07 06:26:14;;;;;;;;;;;10.60;99.90;;;;;;4984140;28;19994;-72
2023/08/07 06:28:40;;;;;;;;;;;10.60;99.90;;;;;;4984941;28;20121;-71
2023/08/07 06:31:09;;;;;;;;;;;10.60;99.90;;;;;;4987383;28;19961;-71
2023/08/07 06:33:36;;;;;;;;;;;10.60;99.90;;;;;;5004015;28;19985;-71
2023/08/07 06:36:03;;;;;;;;;;;10.70;99.90;;;;;;4988612;28;19985;-72
2023/08/07 06:38:29;;;;;;;;;;;10.70;99.90;;;;;;4969138;28;19993;-71
2023/08/07 06:40:56;;;;;;;;;;;10.70;99.90;;;;;;4968931;28;19923;-72
2023/08/07 06:43:23;;;;;;;;;;;10.80;99.90;;;;;;4969097;28;20019;-71
2023/08/07 06:45:50;;;;;;;;;;;10.80;99.90;;;;;;4988042;28;20209;-72
2023/08/07 06:48:18;;;;;;;;;;;10.70;99.90;;;;;;5003479;28;19980;-70
2023/08/07 06:50:45;;;;;;;;;;;10.70;99.90;;;;;;5008119;28;20165;-71
2023/08/07 06:53:11;;;;;;;;;;;10.80;99.90;;;;;;5007512;28;19953;-72
2023/08/07 06:55:45;;;;;;;;;;;10.80;99.90;;;;;;4999740;28;19985;-71
2023/08/07 06:58:12;;;;;;;;;;;10.70;99.90;;;;;;4987772;28;19958;-71
2023/08/07 07:00:39;;;;;;;;;;;10.70;99.90;;;;;;4996002;28;19979;-71
2023/08/07 07:03:05;;;;;;;;;;;10.70;99.90;;;;;;5001912;28;20323;-71
2023/08/07 07:05:33;;;;;;;;;;;10.80;99.90;;;;;;5007283;28;19922;-71
2023/08/07 07:08:00;;;;;;;;;;;10.80;99.90;;;;;;5007042;28;19922;-71
2023/08/07 07:10:27;;;;;;;;;;;10.80;99.90;;;;;;5007421;28;19921;-71
2023/08/07 07:12:53;;;;;;;;;;;10.80;99.90;;;;;;5007341;28;19922;-71
2023/08/07 07:15:20;;;;;;;;;;;10.90;99.90;;;;;;4995125;28;19934;-71
2023/08/07 07:17:46;;;;;;;;;;;10.90;99.90;;;;;;4995272;28;19961;-71
2023/08/07 07:20:13;;;;;;;;;;;10.90;99.90;;;;;;4987805;28;19962;-71
2023/08/07 07:22:41;;;;;;;;;;;10.90;99.90;;;;;;4987932;28;19985;-71
2023/08/07 07:25:08;;;;;;;;;;;10.90;99.90;;;;;;4985876;28;19962;-72
2023/08/07 07:27:35;;;;;;;;;;;10.90;99.90;;;;;;4967393;29;19968;-70
2023/08/07 07:30:02;;;;;;;;;;;10.90;99.90;;;;;;4978613;28;19959;-72
2023/08/07 07:32:28;;;;;;;;;;;10.90;99.90;;;;;;4998349;28;19957;-71
2023/08/07 07:34:55;;;;;;;;;;;10.90;99.90;;;;;;5006984;28;19944;-71
2023/08/07 07:37:22;;;;;;;;;;;10.90;99.90;;;;;;4968944;28;19930;-71
2023/08/07 07:39:50;;;;;;;;;;;10.90;99.90;;;;;;4967115;29;19995;-71
2023/08/07 07:42:17;;;;;;;;;;;10.90;99.90;;;;;;4965741;29;19985;-71
2023/08/07 07:44:44;;;;;;;;;;;11.00;99.90;;;;;;4976537;28;19992;-71
2023/08/07 07:47:11;;;;;;;;;;;11.00;99.90;;;;;;4998126;28;19985;-71
2023/08/07 07:49:38;;;;;;;;;;;11.00;99.90;;;;;;5005470;28;19928;-71
2023/08/07 07:52:06;;;;;;;;;;;11.00;99.90;;;;;;5006818;28;20010;-71
2023/08/07 07:54:32;;;;;;;;;;;11.00;99.90;;;;;;5006829;28;19968;-70
2023/08/07 07:57:15;;;;;;;;;;;11.00;99.90;;;;;;5003486;28;19921;-71
2023/08/07 07:59:41;;;;;;;;;;;11.00;99.90;;;;;;5002418;28;19993;-71
2023/08/07 08:02:08;;;;;;;;;;;11.10;99.90;;;;;;4998331;28;20221;-71
2023/08/07 08:04:35;;;;;;;;;;;11.00;99.90;;;;;;5006815;28;19929;-71
2023/08/07 08:07:03;;;;;;;;;;;11.00;99.90;;;;;;4990248;28;19929;-70
2023/08/07 08:09:30;;;;;;;;;;;11.10;99.90;;;;;;4986561;28;20232;-71
2023/08/07 08:11:56;;;;;;;;;;;11.10;99.90;;;;;;4987028;28;19922;-71
2023/08/07 08:14:24;;;;;;;;;;;11.10;99.90;;;;;;4986378;28;19954;-71
2023/08/07 08:16:51;;;;;;;;;;;11.10;99.90;;;;;;5000973;28;19989;-71
2023/08/07 08:19:17;;;;;;;;;;;11.10;99.90;;;;;;4986486;28;20210;-71
2023/08/07 08:21:44;;;;;;;;;;;11.20;99.90;;;;;;4986705;28;19997;-71
2023/08/07 08:24:11;;;;;;;;;;;11.10;99.90;;;;;;4986489;28;19990;-71
2023/08/07 08:26:37;;;;;;;;;;;11.20;99.90;;;;;;4985912;28;19988;-71
2023/08/07 08:29:04;;;;;;;;;;;11.20;99.90;;;;;;4986636;28;20013;-72
2023/08/07 08:31:32;;;;;;;;;;;11.20;99.90;;;;;;4995368;28;20261;-71
2023/08/07 08:33:59;;;;;;;;;;;11.30;99.90;;;;;;5005743;28;20264;-70
2023/08/07 08:36:27;;;;;;;;;;;11.30;99.90;;;;;;5004703;28;20198;-71
2023/08/07 08:38:54;;;;;;;;;;;11.20;99.90;;;;;;5005934;28;19985;-70
2023/08/07 08:41:21;;;;;;;;;;;11.30;99.90;;;;;;5005875;28;19981;-70
2023/08/07 08:43:50;;;;;;;;;;;11.20;99.90;;;;;;5005518;28;19993;-71
2023/08/07 08:46:17;;;;;;;;;;;11.30;99.90;;;;;;4990384;28;20146;-71
2023/08/07 08:48:47;;;;;;;;;;;11.30;99.90;;;;;;5005112;28;19989;-70
2023/08/07 08:51:14;;;;;;;;;;;11.30;99.90;;;;;;5005763;28;19964;-71
2023/08/07 08:53:41;;;;;;;;;;;11.30;99.90;;;;;;5005421;28;19989;-70
2023/08/07 08:56:14;;;;;;;;;;;11.40;99.90;;;;;;5001935;28;20237;-71
2023/08/07 08:58:41;;;;;;;;;;;11.40;99.90;;;;;;5005754;28;19984;-70
2023/08/07 09:01:08;;;;;;;;;;;11.40;99.90;;;;;;4997374;28;19989;-71
2023/08/07 09:03:35;;;;;;;;;;;11.40;99.90;;;;;;4987821;28;19926;-71
2023/08/07 09:06:05;;;;;;;;;;;11.40;99.90;;;;;;4984977;28;19985;-70
2023/08/07 09:08:32;;;;;;;;;;;11.40;99.90;;;;;;4985742;28;19926;-71
2023/08/07 09:10:59;;;;;;;;;;;11.40;99.90;;;;;;4985919;28;19922;-71
2023/08/07 09:13:27;;;;;;;;;;;11.50;99.90;;;;;;4985839;28;19964;-71
2023/08/07 09:15:54;;;;;;;;;;;11.40;99.90;;;;;;4989970;28;19985;-71
2023/08/07 09:18:21;;;;;;;;;;;11.40;99.90;;;;;;4995871;28;19990;-71
2023/08/07 09:20:47;;;;;;;;;;;11.40;99.90;;;;;;4970051;28;19929;-71
2023/08/07 09:23:17;;;;;;;;;;;11.40;99.90;;;;;;4966290;28;19957;-71
2023/08/07 09:25:44;;;;;;;;;;;11.40;99.90;;;;;;4965858;29;20126;-71
2023/08/07 09:28:10;;;;;;;;;;;11.50;99.90;;;;;;4978135;28;19922;-71
2023/08/07 09:30:37;;;;;;;;;;;11.50;99.90;;;;;;4986881;28;19994;-71
2023/08/07 09:33:05;;;;;;;;;;;11.50;99.90;;;;;;4998675;28;19985;-71
2023/08/07 09:35:33;;;;;;;;;;;11.50;99.90;;;;;;5004666;28;20205;-71
2023/08/07 09:37:59;;;;;;;;;;;11.50;99.90;;;;;;5004054;28;19989;-70
2023/08/07 09:40:27;;;;;;;;;;;11.50;99.90;;;;;;5004897;28;19965;-71
2023/08/07 09:42:55;;;;;;;;;;;11.50;99.90;;;;;;5004447;28;20229;-70
2023/08/07 09:45:22;;;;;;;;;;;11.50;99.90;;;;;;5000843;28;19981;-71
2023/08/07 09:47:57;;;;;;;;;;;11.50;99.90;;;;;;4987808;28;19969;-71
2023/08/07 09:50:24;;;;;;;;;;;11.50;99.90;;;;;;5004479;28;20288;-71
2023/08/07 09:52:50;;;;;;;;;;;11.50;99.90;;;;;;5004657;28;20248;-71
2023/08/07 09:55:17;;;;;;;;;;;11.50;99.90;;;;;;5004625;28;19922;-71
2023/08/07 09:57:53;;;;;;;;;;;11.50;99.90;;;;;;5001956;28;19957;-71
2023/08/07 10:00:20;;;;;;;;;;;11.60;99.90;;;;;;5001013;28;19993;-71
2023/08/07 10:02:48;;;;;;;;;;;11.60;99.90;;;;;;4996237;28;19964;-70
2023/08/07 10:05:15;;;;;;;;;;;11.60;99.90;;;;;;5004492;28;19922;-71
2023/08/07 10:07:42;;;;;;;;;;;11.60;99.90;;;;;;5003435;28;19984;-72
2023/08/07 10:10:09;;;;;;;;;;;11.60;99.90;;;;;;5004487;28;19921;-71
2023/08/07 10:12:36;;;;;;;;;;;11.60;99.90;;;;;;5004441;28;19929;-72
2023/08/07 10:15:05;;;;;;;;;;;11.60;99.90;;;;;;4998656;28;19989;-71
2023/08/07 10:17:32;;;;;;;;;;;11.60;99.90;;;;;;4998780;28;20256;-71
2023/08/07 10:19:59;;;;;;;;;;;11.60;99.90;;;;;;5004416;28;19989;-72
2023/08/07 10:22:26;;;;;;;;;;;11.60;99.90;;;;;;5004059;28;19956;-71
2023/08/07 10:24:54;;;;;;;;;;;11.70;99.90;;;;;;5004351;28;19922;-72
2023/08/07 10:27:22;;;;;;;;;;;11.70;99.90;;;;;;5003502;28;19985;-72
2023/08/07 10:29:51;;;;;;;;;;;11.70;99.90;;;;;;5000612;28;19989;-72
2023/08/07 10:32:20;;;;;;;;;;;11.70;99.90;;;;;;4999256;28;19928;-71
2023/08/07 10:34:48;;;;;;;;;;;11.80;99.90;;;;;;5004245;28;19957;-72
2023/08/07 10:37:32;;;;;;;;;;;11.80;99.90;;;;;;5003599;28;20174;-72
2023/08/07 10:40:02;;;;;;;;;;;11.80;99.90;;;;;;5004367;28;19988;-71
2023/08/07 10:42:28;;;;;;;;;;;11.80;99.90;;;;;;5004113;28;19953;-71
2023/08/07 10:44:55;;;;;;;;;;;11.80;99.90;;;;;;4999786;28;20016;-71
2023/08/07 10:47:34;;;;;;;;;;;11.80;99.90;;;;;;4992085;28;19922;-71
2023/08/07 10:50:01;;;;;;;;;;;11.90;99.90;;;;;;4984602;28;19929;-71
2023/08/07 10:52:28;;;;;;;;;;;11.90;99.90;;;;;;4984392;28;19989;-71
2023/08/07 10:54:55;;;;;;;;;;;11.90;99.90;;;;;;4984253;28;19922;-72
2023/08/07 10:57:23;;;;;;;;;;;11.90;99.90;;;;;;4981631;28;20168;-71
2023/08/07 11:00:04;;;;;;;;;;;11.90;99.90;;;;;;4981325;28;19922;-71
2023/08/07 11:02:33;;;;;;;;;;;12.00;99.90;;;;;;4993228;28;20213;-72
2023/08/07 11:05:01;;;;;;;;;;;12.10;99.90;;;;;;5003966;28;19922;-70
2023/08/07 11:07:28;;;;;;;;;;;12.20;99.90;;;;;;5003124;28;19960;-70
2023/08/07 11:09:54;;;;;;;;;;;12.20;99.90;;;;;;5004039;28;19972;-71
2023/08/07 11:12:21;;;;;;;;;;;12.20;99.90;;;;;;5003708;28;19922;-70
2023/08/07 11:14:48;;;;;;;;;;;12.30;99.90;;;;;;5000330;28;19928;-71
2023/08/07 11:17:14;;;;;;;;;;;12.30;99.90;;;;;;4987978;28;20217;-71
2023/08/07 11:19:41;;;;;;;;;;;12.40;99.90;;;;;;4984184;28;20002;-71
2023/08/07 11:22:09;;;;;;;;;;;12.40;99.90;;;;;;4985724;28;19993;-71
2023/08/07 11:24:36;;;;;;;;;;;12.40;99.90;;;;;;4968562;29;19966;-71
2023/08/07 11:27:03;;;;;;;;;;;12.40;99.90;;;;;;4967518;29;19959;-71
2023/08/07 11:29:30;;;;;;;;;;;12.30;99.90;;;;;;4969971;28;19985;-72
2023/08/07 11:31:57;;;;;;;;;;;12.30;99.90;;;;;;5002715;28;20379;-71
2023/08/07 11:34:25;;;;;;;;;;;12.40;99.90;;;;;;4987403;28;19994;-71
2023/08/07 11:36:51;;;;;;;;;;;12.30;99.90;;;;;;4987046;28;19922;-71
2023/08/07 11:39:19;;;;;;;;;;;12.30;99.90;;;;;;4987525;28;19988;-71
2023/08/07 11:41:46;;;;;;;;;;;12.30;99.90;;;;;;4987714;28;19989;-71
2023/08/07 11:44:13;;;;;;;;;;;12.20;99.90;;;;;;4986635;28;19926;-71
2023/08/07 11:46:39;;;;;;;;;;;12.20;99.90;;;;;;4996452;28;19929;-71
2023/08/07 11:49:06;;;;;;;;;;;12.20;99.90;;;;;;5007005;28;20116;-72
2023/08/07 11:51:34;;;;;;;;;;;12.20;99.90;;;;;;5006875;28;19922;-72
2023/08/07 11:54:00;;;;;;;;;;;12.20;99.90;;;;;;4991823;28;20167;-71
2023/08/07 11:56:35;;;;;;;;;;;12.20;99.90;;;;;;4984442;28;19962;-71
2023/08/07 11:59:03;;;;;;;;;;;12.20;99.90;;;;;;4986558;28;19957;-71
2023/08/07 12:01:30;;;;;;;;;;;12.30;99.90;;;;;;4993398;28;19929;-71
2023/08/07 12:03:57;;;;;;;;;;;12.30;99.90;;;;;;5006187;28;19925;-72
2023/08/07 12:06:24;;;;;;;;;;;12.40;99.90;;;;;;5005790;28;19993;-72
2023/08/07 12:08:51;;;;;;;;;;;12.40;99.90;;;;;;5006525;28;19960;-71
2023/08/07 12:11:18;;;;;;;;;;;12.50;99.90;;;;;;5006487;28;19921;-71
2023/08/07 12:13:46;;;;;;;;;;;12.50;99.90;;;;;;4994327;28;19922;-72
2023/08/07 12:16:15;;;;;;;;;;;12.70;99.90;;;;;;4994105;28;19989;-71
2023/08/07 12:18:44;;;;;;;;;;;12.70;99.90;;;;;;5003175;28;19944;-70
2023/08/07 12:21:11;;;;;;;;;;;12.70;99.90;;;;;;4991635;28;20110;-71
2023/08/07 12:23:37;;;;;;;;;;;12.80;99.90;;;;;;4986781;28;19929;-71
2023/08/07 12:26:06;;;;;;;;;;;12.80;99.90;;;;;;4986038;28;19923;-71
2023/08/07 12:28:35;;;;;;;;;;;12.90;99.90;;;;;;4984527;28;19922;-71
2023/08/07 12:31:03;;;;;;;;;;;12.90;99.90;;;;;;4994175;28;19992;-72
2023/08/07 12:33:30;;;;;;;;;;;12.90;99.90;;;;;;5003593;28;19960;-71
2023/08/07 12:35:57;;;;;;;;;;;12.80;99.90;;;;;;5005672;28;20335;-71
2023/08/07 12:38:23;;;;;;;;;;;12.90;99.90;;;;;;5005741;28;20117;-70
2023/08/07 12:40:50;;;;;;;;;;;12.90;99.90;;;;;;5005665;28;19925;-70
2023/08/07 12:43:17;;;;;;;;;;;12.80;99.90;;;;;;5005638;28;20035;-71
2023/08/07 12:45:44;;;;;;;;;;;12.80;99.90;;;;;;4997367;28;19997;-71
2023/08/07 12:48:12;;;;;;;;;;;12.80;99.90;;;;;;4990996;28;20145;-72
2023/08/07 12:50:39;;;;;;;;;;;12.70;99.90;;;;;;4985998;28;20243;-70
2023/08/07 12:53:06;;;;;;;;;;;12.60;99.90;;;;;;4986169;28;19953;-71
2023/08/07 12:55:38;;;;;;;;;;;12.60;99.90;;;;;;4983991;28;19954;-71
2023/08/07 12:58:04;;;;;;;;;;;12.50;99.90;;;;;;4985800;28;19988;-71
2023/08/07 13:00:31;;;;;;;;;;;12.50;99.90;;;;;;4983508;28;19922;-72
2023/08/07 13:02:58;;;;;;;;;;;12.40;99.90;;;;;;4992486;28;19953;-72
2023/08/07 13:05:26;;;;;;;;;;;12.30;99.90;;;;;;4985984;28;19922;-73
2023/08/07 13:07:55;;;;;;;;;;;12.30;99.90;;;;;;4985224;28;20118;-73
2023/08/07 13:10:23;;;;;;;;;;;12.30;99.90;;;;;;4986082;28;19926;-72
2023/08/07 13:12:49;;;;;;;;;;;12.30;99.90;;;;;;4985852;28;19969;-73
2023/08/07 13:15:17;;;;;;;;;;;12.30;99.90;;;;;;4982040;28;19969;-72
2023/08/07 13:17:44;;;;;;;;;;;12.30;99.90;;;;;;4993004;28;19950;-71
2023/08/07 13:20:12;;;;;;;;;;;12.30;99.90;;;;;;4985542;28;20224;-73
2023/08/07 13:22:41;;;;;;;;;;;12.20;99.90;;;;;;4980821;28;19923;-73
2023/08/07 13:25:08;;;;;;;;;;;12.20;99.90;;;;;;4966334;29;19922;-71
2023/08/07 13:27:35;;;;;;;;;;;12.20;99.90;;;;;;4965742;29;19972;-72
2023/08/07 13:30:02;;;;;;;;;;;12.10;99.90;;;;;;4978614;28;19985;-73
2023/08/07 13:32:29;;;;;;;;;;;12.20;99.90;;;;;;4996806;28;19953;-72
2023/08/07 13:34:56;;;;;;;;;;;12.10;99.90;;;;;;5004817;28;19928;-72
2023/08/07 13:37:23;;;;;;;;;;;12.10;99.90;;;;;;4999110;28;19945;-72
2023/08/07 13:39:52;;;;;;;;;;;12.10;99.90;;;;;;4966939;28;19949;-72
2023/08/07 13:42:19;;;;;;;;;;;12.00;99.90;;;;;;4968098;28;19930;-72
2023/08/07 13:44:46;;;;;;;;;;;12.10;99.90;;;;;;4972587;28;19960;-72
2023/08/07 13:47:12;;;;;;;;;;;12.10;99.90;;;;;;4986622;28;19968;-73
2023/08/07 13:49:40;;;;;;;;;;;12.10;99.90;;;;;;4969791;28;20419;-72
2023/08/07 13:52:06;;;;;;;;;;;12.10;99.90;;;;;;4983913;28;20170;-73
2023/08/07 13:54:33;;;;;;;;;;;12.20;99.90;;;;;;4982397;28;19961;-73
2023/08/07 13:57:10;;;;;;;;;;;12.20;99.90;;;;;;4981683;28;20229;-72
2023/08/07 13:59:36;;;;;;;;;;;12.20;99.90;;;;;;4982925;28;20110;-72
2023/08/07 14:02:03;;;;;;;;;;;12.20;99.90;;;;;;4983830;28;20028;-73
2023/08/07 14:04:30;;;;;;;;;;;12.20;99.90;;;;;;4985101;28;19922;-73
2023/08/07 14:06:56;;;;;;;;;;;12.30;99.90;;;;;;4971774;28;19950;-73
2023/08/07 14:09:23;;;;;;;;;;;12.30;99.90;;;;;;4965800;28;19997;-72
2023/08/07 14:11:50;;;;;;;;;;;12.30;99.90;;;;;;4965558;29;20150;-73
2023/08/07 14:14:18;;;;;;;;;;;12.40;99.90;;;;;;4968622;28;19971;-72
2023/08/07 14:16:44;;;;;;;;;;;12.40;99.90;;;;;;4994498;28;19984;-73